sensor_id;sensor_type;location;lat;lon;timestamp;pressure;altitude;pressure_sealevel;temperature;humidity
45813;BME280;31519;45.408;10.962;2023-03-15T00:02:05;99493.59;;;14.57;100.00
45813;BME280;31519;45.408;10.962;2023-03-15T00:04:33;99514.03;;;14.65;99.63
45813;BME280;31519;45.408;10.962;2023-03-15T00:07:01;99518.06;;;14.36;100.00
45813;BME280;31519;45.408;10.962;2023-03-15T00:09:29;99514.94;;;14.34;100.00
45813;BME280;31519;45.408;10.962;2023-03-15T00:11:57;99522.53;;;14.48;100.00
45813;BME280;31519;45.408;10.962;2023-03-15T00:14:25;99526.44;;;14.54;99.10
45813;BME280;31519;45.408;10.962;2023-03-15T00:16:53;99533.97;;;14.29;100.00
45813;BME280;31519;45.408;10.962;2023-03-15T00:19:21;99538.75;;;14.20;100.00
45813;BME280;31519;45.408;10.962;2023-03-15T00:21:49;99539.81;;;14.15;100.00
45813;BME280;31519;45.408;10.962;2023-03-15T00:24:16;99536.44;;;14.18;100.00
45813;BME280;31519;45.408;10.962;2023-03-15T00:26:45;99546.16;;;14.27;100.00
45813;BME280;31519;45.408;10.962;2023-03-15T00:29:12;99544.03;;;14.16;100.00
45813;BME280;31519;45.408;10.962;2023-03-15T00:31:40;99542.31;;;14.08;100.00
45813;BME280;31519;45.408;10.962;2023-03-15T00:34:08;99550.69;;;13.88;100.00
45813;BME280;31519;45.408;10.962;2023-03-15T00:36:37;99559.56;;;13.92;100.00
45813;BME280;31519;45.408;10.962;2023-03-15T00:39:05;99563.03;;;13.92;100.00
45813;BME280;31519;45.408;10.962;2023-03-15T00:41:33;99563.97;;;13.84;100.00
45813;BME280;31519;45.408;10.962;2023-03-15T00:44:02;99566.38;;;13.89;100.00
45813;BME280;31519;45.408;10.962;2023-03-15T00:46:31;99572.50;;;13.90;100.00
45813;BME280;31519;45.408;10.962;2023-03-15T00:48:59;99570.69;;;13.94;100.00
45813;BME280;31519;45.408;10.962;2023-03-15T00:51:27;99575.56;;;13.88;100.00
45813;BME280;31519;45.408;10.962;2023-03-15T00:53:55;99581.50;;;13.82;100.00
45813;BME280;31519;45.408;10.962;2023-03-15T00:56:24;99577.50;;;14.07;100.00
45813;BME280;31519;45.408;10.962;2023-03-15T00:58:52;99581.31;;;14.06;100.00
45813;BME280;31519;45.408;10.962;2023-03-15T01:01:22;99580.72;;;13.97;100.00
45813;BME280;31519;45.408;10.962;2023-03-15T01:03:51;99585.03;;;13.86;100.00
45813;BME280;31519;45.408;10.962;2023-03-15T01:06:20;99586.78;;;13.78;100.00
45813;BME280;31519;45.408;10.962;2023-03-15T01:08:49;99584.44;;;13.92;100.00
45813;BME280;31519;45.408;10.962;2023-03-15T01:11:19;99589.97;;;13.84;100.00
45813;BME280;31519;45.408;10.962;2023-03-15T01:13:52;99591.78;;;13.80;100.00
45813;BME280;31519;45.408;10.962;2023-03-15T01:16:20;99583.13;;;13.70;100.00
45813;BME280;31519;45.408;10.962;2023-03-15T01:18:48;99577.97;;;13.77;100.00
45813;BME280;31519;45.408;10.962;2023-03-15T01:21:19;99576.56;;;13.99;100.00
45813;BME280;31519;45.408;10.962;2023-03-15T01:23:47;99579.94;;;13.81;100.00
45813;BME280;31519;45.408;10.962;2023-03-15T01:26:15;99582.94;;;14.10;100.00
45813;BME280;31519;45.408;10.962;2023-03-15T01:28:43;99576.47;;;13.96;99.47
45813;BME280;31519;45.408;10.962;2023-03-15T01:31:21;99585.03;;;13.86;100.00
45813;BME280;31519;45.408;10.962;2023-03-15T01:33:50;99579.28;;;13.84;100.00
45813;BME280;31519;45.408;10.962;2023-03-15T01:36:18;99582.81;;;13.88;98.95
45813;BME280;31519;45.408;10.962;2023-03-15T01:38:46;99584.50;;;13.96;98.45
45813;BME280;31519;45.408;10.962;2023-03-15T01:41:20;99582.13;;;13.59;99.05
45813;BME280;31519;45.408;10.962;2023-03-15T01:43:47;99587.81;;;13.42;100.00
45813;BME280;31519;45.408;10.962;2023-03-15T01:46:27;99598.09;;;13.40;100.00
45813;BME280;31519;45.408;10.962;2023-03-15T01:57:06;99598.25;;;13.31;99.13
45813;BME280;31519;45.408;10.962;2023-03-15T01:59:39;99602.38;;;13.29;98.58
45813;BME280;31519;45.408;10.962;2023-03-15T02:02:10;99597.78;;;13.14;99.13
45813;BME280;31519;45.408;10.962;2023-03-15T02:04:43;99591.34;;;13.03;98.16
45813;BME280;31519;45.408;10.962;2023-03-15T02:07:16;99589.28;;;12.96;98.41
45813;BME280;31519;45.408;10.962;2023-03-15T02:09:58;99590.47;;;12.99;98.94
45813;BME280;31519;45.408;10.962;2023-03-15T02:12:30;99590.38;;;12.95;98.18
45813;BME280;31519;45.408;10.962;2023-03-15T02:14:59;99580.50;;;12.83;99.23
45813;BME280;31519;45.408;10.962;2023-03-15T02:17:35;99580.00;;;12.78;99.48
45813;BME280;31519;45.408;10.962;2023-03-15T02:20:11;99585.66;;;13.04;98.50
45813;BME280;31519;45.408;10.962;2023-03-15T02:27:50;99578.63;;;12.84;99.85
45813;BME280;31519;45.408;10.962;2023-03-15T02:30:18;99583.06;;;12.92;99.49
45813;BME280;31519;45.408;10.962;2023-03-15T02:32:46;99580.34;;;12.76;99.71
45813;BME280;31519;45.408;10.962;2023-03-15T02:35:21;99577.34;;;12.78;100.00
45813;BME280;31519;45.408;10.962;2023-03-15T02:37:53;99580.91;;;12.70;99.60
45813;BME280;31519;45.408;10.962;2023-03-15T02:40:21;99582.84;;;12.57;99.91
45813;BME280;31519;45.408;10.962;2023-03-15T02:42:50;99585.91;;;12.71;98.58
45813;BME280;31519;45.408;10.962;2023-03-15T02:45:19;99586.94;;;12.67;99.49
45813;BME280;31519;45.408;10.962;2023-03-15T02:47:50;99585.34;;;12.78;99.18
45813;BME280;31519;45.408;10.962;2023-03-15T02:50:18;99592.72;;;12.69;99.35
45813;BME280;31519;45.408;10.962;2023-03-15T02:52:46;99593.53;;;12.85;98.31
45813;BME280;31519;45.408;10.962;2023-03-15T02:55:14;99595.44;;;12.84;95.96
45813;BME280;31519;45.408;10.962;2023-03-15T02:57:42;99584.94;;;12.64;97.43
45813;BME280;31519;45.408;10.962;2023-03-15T03:00:10;99596.66;;;12.87;96.97
45813;BME280;31519;45.408;10.962;2023-03-15T03:02:43;99603.34;;;12.53;98.70
45813;BME280;31519;45.408;10.962;2023-03-15T03:05:12;99600.13;;;12.87;96.45
45813;BME280;31519;45.408;10.962;2023-03-15T03:07:40;99607.97;;;12.68;97.00
45813;BME280;31519;45.408;10.962;2023-03-15T03:10:13;99611.72;;;13.07;94.71
45813;BME280;31519;45.408;10.962;2023-03-15T03:12:49;99611.00;;;12.95;94.91
45813;BME280;31519;45.408;10.962;2023-03-15T03:15:26;99609.09;;;12.67;96.23
45813;BME280;31519;45.408;10.962;2023-03-15T03:17:54;99606.06;;;12.29;99.14
45813;BME280;31519;45.408;10.962;2023-03-15T03:20:23;99611.81;;;12.43;98.60
45813;BME280;31519;45.408;10.962;2023-03-15T03:22:50;99612.50;;;12.40;98.66
45813;BME280;31519;45.408;10.962;2023-03-15T03:25:18;99620.75;;;12.23;99.51
45813;BME280;31519;45.408;10.962;2023-03-15T03:27:47;99615.84;;;12.25;100.00
45813;BME280;31519;45.408;10.962;2023-03-15T03:30:15;99625.41;;;12.26;100.00
45813;BME280;31519;45.408;10.962;2023-03-15T03:32:49;99627.41;;;12.29;100.00
45813;BME280;31519;45.408;10.962;2023-03-15T03:35:17;99626.31;;;12.30;99.40
45813;BME280;31519;45.408;10.962;2023-03-15T03:37:45;99632.53;;;12.34;98.94
45813;BME280;31519;45.408;10.962;2023-03-15T03:40:20;99641.91;;;12.04;100.00
45813;BME280;31519;45.408;10.962;2023-03-15T03:42:48;99640.00;;;12.16;100.00
45813;BME280;31519;45.408;10.962;2023-03-15T03:45:18;99642.22;;;12.02;100.00
45813;BME280;31519;45.408;10.962;2023-03-15T03:47:50;99646.47;;;12.03;100.00
45813;BME280;31519;45.408;10.962;2023-03-15T03:50:18;99659.38;;;12.13;100.00
45813;BME280;31519;45.408;10.962;2023-03-15T03:52:45;99662.81;;;12.14;100.00
45813;BME280;31519;45.408;10.962;2023-03-15T03:55:20;99670.03;;;12.25;100.00
45813;BME280;31519;45.408;10.962;2023-03-15T03:57:53;99664.34;;;12.39;100.00
45813;BME280;31519;45.408;10.962;2023-03-15T04:00:36;99661.03;;;12.30;100.00
45813;BME280;31519;45.408;10.962;2023-03-15T04:03:06;99658.03;;;12.31;100.00
45813;BME280;31519;45.408;10.962;2023-03-15T04:05:36;99665.16;;;12.27;99.50
45813;BME280;31519;45.408;10.962;2023-03-15T04:08:04;99669.25;;;12.37;98.58
45813;BME280;31519;45.408;10.962;2023-03-15T04:10:37;99674.59;;;12.37;98.80
45813;BME280;31519;45.408;10.962;2023-03-15T04:13:05;99674.72;;;12.40;98.76
45813;BME280;31519;45.408;10.962;2023-03-15T04:15:33;99672.94;;;12.32;98.33
45813;BME280;31519;45.408;10.962;2023-03-15T04:18:01;99669.03;;;12.18;99.82
45813;BME280;31519;45.408;10.962;2023-03-15T04:20:38;99666.59;;;12.37;98.91
45813;BME280;31519;45.408;10.962;2023-03-15T04:23:06;99669.72;;;12.27;98.41
45813;BME280;31519;45.408;10.962;2023-03-15T04:25:40;99674.38;;;12.30;98.62
45813;BME280;31519;45.408;10.962;2023-03-15T04:28:27;99673.34;;;12.47;97.41
45813;BME280;31519;45.408;10.962;2023-03-15T04:31:15;99661.00;;;12.54;98.04
45813;BME280;31519;45.408;10.962;2023-03-15T04:34:15;99663.13;;;12.49;98.02
45813;BME280;31519;45.408;10.962;2023-03-15T04:36:58;99668.59;;;12.28;98.70
45813;BME280;31519;45.408;10.962;2023-03-15T04:39:35;99677.03;;;12.42;98.53
45813;BME280;31519;45.408;10.962;2023-03-15T04:42:29;99680.50;;;12.18;99.25
45813;BME280;31519;45.408;10.962;2023-03-15T04:45:17;99683.50;;;12.41;97.34
45813;BME280;31519;45.408;10.962;2023-03-15T04:48:11;99687.59;;;12.51;95.89
45813;BME280;31519;45.408;10.962;2023-03-15T04:50:49;99692.41;;;12.09;98.66
45813;BME280;31519;45.408;10.962;2023-03-15T04:53:33;99689.38;;;11.86;100.00
45813;BME280;31519;45.408;10.962;2023-03-15T04:56:14;99695.63;;;12.14;99.87
45813;BME280;31519;45.408;10.962;2023-03-15T04:58:53;99694.84;;;11.69;100.00
45813;BME280;31519;45.408;10.962;2023-03-15T05:01:40;99702.22;;;11.39;100.00
45813;BME280;31519;45.408;10.962;2023-03-15T05:04:30;99704.44;;;11.37;100.00
45813;BME280;31519;45.408;10.962;2023-03-15T05:07:24;99713.78;;;11.43;100.00
45813;BME280;31519;45.408;10.962;2023-03-15T05:10:21;99717.47;;;11.50;100.00
45813;BME280;31519;45.408;10.962;2023-03-15T05:13:08;99713.59;;;11.48;100.00
45813;BME280;31519;45.408;10.962;2023-03-15T05:15:45;99725.78;;;11.16;100.00
45813;BME280;31519;45.408;10.962;2023-03-15T05:18:32;99730.16;;;11.21;100.00
45813;BME280;31519;45.408;10.962;2023-03-15T05:21:20;99730.19;;;11.33;100.00
45813;BME280;31519;45.408;10.962;2023-03-15T05:24:07;99730.97;;;10.92;100.00
45813;BME280;31519;45.408;10.962;2023-03-15T05:26:55;99736.97;;;10.89;100.00
45813;BME280;31519;45.408;10.962;2023-03-15T05:29:42;99729.38;;;10.99;100.00
45813;BME280;31519;45.408;10.962;2023-03-15T05:32:31;99738.84;;;11.09;100.00
45813;BME280;31519;45.408;10.962;2023-03-15T05:35:17;99748.72;;;11.29;100.00
45813;BME280;31519;45.408;10.962;2023-03-15T05:38:07;99763.78;;;11.46;99.82
45813;BME280;31519;45.408;10.962;2023-03-15T05:41:05;99764.13;;;11.44;99.26
45813;BME280;31519;45.408;10.962;2023-03-15T05:43:42;99771.16;;;11.28;100.00
45813;BME280;31519;45.408;10.962;2023-03-15T05:46:36;99776.19;;;11.30;99.88
45813;BME280;31519;45.408;10.962;2023-03-15T05:49:10;99783.09;;;10.81;100.00
45813;BME280;31519;45.408;10.962;2023-03-15T05:52:01;99798.59;;;11.08;100.00
45813;BME280;31519;45.408;10.962;2023-03-15T05:54:36;99807.38;;;11.08;100.00
45813;BME280;31519;45.408;10.962;2023-03-15T05:57:19;99796.56;;;10.84;100.00
45813;BME280;31519;45.408;10.962;2023-03-15T05:59:58;99795.59;;;11.09;100.00
45813;BME280;31519;45.408;10.962;2023-03-15T06:02:42;99794.84;;;11.30;100.00
45813;BME280;31519;45.408;10.962;2023-03-15T06:05:29;99786.88;;;11.63;99.28
45813;BME280;31519;45.408;10.962;2023-03-15T06:08:01;99793.97;;;11.38;100.00
45813;BME280;31519;45.408;10.962;2023-03-15T06:10:28;99797.63;;;11.54;98.81
45813;BME280;31519;45.408;10.962;2023-03-15T06:12:59;99810.53;;;11.64;98.95
45813;BME280;31519;45.408;10.962;2023-03-15T06:15:27;99823.91;;;11.85;97.63
45813;BME280;31519;45.408;10.962;2023-03-15T06:17:56;99826.34;;;11.69;98.61
45813;BME280;31519;45.408;10.962;2023-03-15T06:20:23;99833.59;;;11.89;98.02
45813;BME280;31519;45.408;10.962;2023-03-15T06:22:52;99846.47;;;11.87;98.36
45813;BME280;31519;45.408;10.962;2023-03-15T06:25:33;99846.44;;;12.08;96.40
45813;BME280;31519;45.408;10.962;2023-03-15T06:28:01;99851.13;;;12.11;95.85
45813;BME280;31519;45.408;10.962;2023-03-15T06:30:29;99846.72;;;12.27;95.25
45813;BME280;31519;45.408;10.962;2023-03-15T06:33:00;99853.28;;;12.30;94.90
45813;BME280;31519;45.408;10.962;2023-03-15T06:35:29;99853.06;;;12.23;95.49
45813;BME280;31519;45.408;10.962;2023-03-15T06:37:57;99852.22;;;12.55;93.97
45813;BME280;31519;45.408;10.962;2023-03-15T06:40:26;99848.78;;;12.79;92.16
45813;BME280;31519;45.408;10.962;2023-03-15T06:42:54;99860.03;;;13.09;89.80
45813;BME280;31519;45.408;10.962;2023-03-15T06:45:21;99857.16;;;13.14;87.96
45813;BME280;31519;45.408;10.962;2023-03-15T06:47:49;99860.56;;;13.02;83.27
45813;BME280;31519;45.408;10.962;2023-03-15T06:50:17;99864.50;;;13.05;81.77
45813;BME280;31519;45.408;10.962;2023-03-15T06:52:45;99877.16;;;12.83;82.43
45813;BME280;31519;45.408;10.962;2023-03-15T06:55:13;99875.63;;;12.95;82.37
45813;BME280;31519;45.408;10.962;2023-03-15T06:57:45;99876.88;;;13.21;82.86
45813;BME280;31519;45.408;10.962;2023-03-15T07:00:13;99884.75;;;13.30;81.03
45813;BME280;31519;45.408;10.962;2023-03-15T07:02:41;99882.28;;;13.49;80.72
45813;BME280;31519;45.408;10.962;2023-03-15T07:05:09;99874.44;;;13.68;80.49
45813;BME280;31519;45.408;10.962;2023-03-15T07:07:37;99876.41;;;13.71;81.12
45813;BME280;31519;45.408;10.962;2023-03-15T07:10:05;99875.53;;;13.67;80.13
45813;BME280;31519;45.408;10.962;2023-03-15T07:12:33;99875.78;;;13.62;81.33
45813;BME280;31519;45.408;10.962;2023-03-15T07:15:00;99877.16;;;13.84;80.88
45813;BME280;31519;45.408;10.962;2023-03-15T07:17:28;99878.16;;;13.92;81.35
45813;BME280;31519;45.408;10.962;2023-03-15T07:19:56;99885.09;;;14.08;82.16
45813;BME280;31519;45.408;10.962;2023-03-15T07:22:24;99888.94;;;14.51;80.27
45813;BME280;31519;45.408;10.962;2023-03-15T07:24:52;99889.72;;;14.51;79.08
45813;BME280;31519;45.408;10.962;2023-03-15T07:27:20;99900.44;;;14.67;78.88
45813;BME280;31519;45.408;10.962;2023-03-15T07:29:48;99900.19;;;14.88;79.27
45813;BME280;31519;45.408;10.962;2023-03-15T07:32:16;99907.94;;;15.08;79.31
45813;BME280;31519;45.408;10.962;2023-03-15T07:34:44;99907.66;;;15.29;79.12
45813;BME280;31519;45.408;10.962;2023-03-15T07:37:11;99906.34;;;15.39;78.33
45813;BME280;31519;45.408;10.962;2023-03-15T07:39:39;99907.63;;;15.61;78.05
45813;BME280;31519;45.408;10.962;2023-03-15T07:42:07;99920.25;;;15.60;78.24
45813;BME280;31519;45.408;10.962;2023-03-15T07:44:40;99921.91;;;15.84;78.34
45813;BME280;31519;45.408;10.962;2023-03-15T07:47:08;99931.88;;;16.03;78.43
45813;BME280;31519;45.408;10.962;2023-03-15T07:49:36;99936.75;;;16.16;77.10
45813;BME280;31519;45.408;10.962;2023-03-15T07:52:04;99937.44;;;16.52;76.40
45813;BME280;31519;45.408;10.962;2023-03-15T07:54:32;99943.94;;;16.93;75.25
45813;BME280;31519;45.408;10.962;2023-03-15T07:57:01;99952.66;;;17.09;74.97
45813;BME280;31519;45.408;10.962;2023-03-15T07:59:28;99953.25;;;17.48;74.07
45813;BME280;31519;45.408;10.962;2023-03-15T08:01:56;99960.22;;;17.52;73.86
45813;BME280;31519;45.408;10.962;2023-03-15T08:04:27;99956.72;;;17.75;72.71
45813;BME280;31519;45.408;10.962;2023-03-15T08:06:55;99971.06;;;17.82;72.67
45813;BME280;31519;45.408;10.962;2023-03-15T08:09:23;99974.34;;;17.98;71.70
45813;BME280;31519;45.408;10.962;2023-03-15T08:11:51;99971.34;;;18.03;71.42
45813;BME280;31519;45.408;10.962;2023-03-15T08:14:20;99977.97;;;18.09;71.27
45813;BME280;31519;45.408;10.962;2023-03-15T08:16:48;99976.25;;;18.28;69.90
45813;BME280;31519;45.408;10.962;2023-03-15T08:19:16;99981.88;;;18.49;68.17
45813;BME280;31519;45.408;10.962;2023-03-15T08:21:44;99989.88;;;18.75;66.73
45813;BME280;31519;45.408;10.962;2023-03-15T08:24:11;99977.31;;;18.53;63.22
45813;BME280;31519;45.408;10.962;2023-03-15T08:26:39;99985.22;;;19.13;63.45
45813;BME280;31519;45.408;10.962;2023-03-15T08:29:09;100001.31;;;19.46;61.20
45813;BME280;31519;45.408;10.962;2023-03-15T08:31:37;99991.84;;;19.19;60.92
45813;BME280;31519;45.408;10.962;2023-03-15T08:34:05;99992.81;;;19.44;59.88
45813;BME280;31519;45.408;10.962;2023-03-15T08:36:33;99998.84;;;19.27;58.69
45813;BME280;31519;45.408;10.962;2023-03-15T08:39:01;100002.09;;;19.02;58.35
45813;BME280;31519;45.408;10.962;2023-03-15T08:41:31;100008.09;;;18.52;58.90
45813;BME280;31519;45.408;10.962;2023-03-15T08:43:58;100010.53;;;18.27;60.41
45813;BME280;31519;45.408;10.962;2023-03-15T08:46:26;100011.81;;;18.07;60.83
45813;BME280;31519;45.408;10.962;2023-03-15T08:48:54;100013.19;;;17.94;61.21
45813;BME280;31519;45.408;10.962;2023-03-15T08:51:22;100020.72;;;17.81;61.00
45813;BME280;31519;45.408;10.962;2023-03-15T08:53:52;100028.75;;;17.78;61.92
45813;BME280;31519;45.408;10.962;2023-03-15T08:56:20;100039.41;;;17.70;62.33
45813;BME280;31519;45.408;10.962;2023-03-15T08:58:47;100040.13;;;17.45;63.76
45813;BME280;31519;45.408;10.962;2023-03-15T09:01:15;100045.47;;;17.41;64.16
45813;BME280;31519;45.408;10.962;2023-03-15T09:03:43;100058.59;;;17.46;64.46
45813;BME280;31519;45.408;10.962;2023-03-15T09:06:11;100051.50;;;17.35;63.05
45813;BME280;31519;45.408;10.962;2023-03-15T09:08:39;100062.22;;;17.31;62.59
45813;BME280;31519;45.408;10.962;2023-03-15T09:11:08;100066.28;;;17.44;63.19
45813;BME280;31519;45.408;10.962;2023-03-15T09:13:36;100074.31;;;17.18;63.50
45813;BME280;31519;45.408;10.962;2023-03-15T09:16:04;100075.44;;;17.17;64.62
45813;BME280;31519;45.408;10.962;2023-03-15T09:18:32;100079.97;;;17.13;64.92
45813;BME280;31519;45.408;10.962;2023-03-15T09:21:00;100077.25;;;16.90;62.61
45813;BME280;31519;45.408;10.962;2023-03-15T09:23:28;100084.47;;;16.86;60.74
45813;BME280;31519;45.408;10.962;2023-03-15T09:25:56;100098.59;;;17.02;60.11
45813;BME280;31519;45.408;10.962;2023-03-15T09:28:24;100098.16;;;17.19;60.64
45813;BME280;31519;45.408;10.962;2023-03-15T09:30:54;100098.09;;;17.39;60.27
45813;BME280;31519;45.408;10.962;2023-03-15T09:33:23;100112.44;;;17.23;61.47
45813;BME280;31519;45.408;10.962;2023-03-15T09:35:51;100109.75;;;17.46;60.45
45813;BME280;31519;45.408;10.962;2023-03-15T09:38:19;100116.22;;;17.42;60.06
45813;BME280;31519;45.408;10.962;2023-03-15T09:40:48;100120.25;;;17.51;60.48
45813;BME280;31519;45.408;10.962;2023-03-15T09:48:39;100135.78;;;18.07;57.53
45813;BME280;31519;45.408;10.962;2023-03-15T09:51:12;100134.38;;;17.90;58.35
45813;BME280;31519;45.408;10.962;2023-03-15T09:53:44;100145.38;;;18.31;58.59
45813;BME280;31519;45.408;10.962;2023-03-15T09:56:27;100142.78;;;18.11;57.04
45813;BME280;31519;45.408;10.962;2023-03-15T09:58:57;100147.47;;;18.14;51.64
45813;BME280;31519;45.408;10.962;2023-03-15T10:01:36;100151.94;;;18.56;43.30
45813;BME280;31519;45.408;10.962;2023-03-15T10:04:07;100155.59;;;18.18;37.62
45813;BME280;31519;45.408;10.962;2023-03-15T10:06:37;100159.69;;;19.24;36.76
45813;BME280;31519;45.408;10.962;2023-03-15T10:09:14;100156.34;;;19.38;35.07
45813;BME280;31519;45.408;10.962;2023-03-15T10:16:55;100168.53;;;20.57;30.45
45813;BME280;31519;45.408;10.962;2023-03-15T10:21:55;100169.25;;;21.58;31.53
45813;BME280;31519;45.408;10.962;2023-03-15T10:27:59;100170.06;;;22.22;29.88
45813;BME280;31519;45.408;10.962;2023-03-15T10:29:59;100166.16;;;21.81;29.52
45813;BME280;31519;45.408;10.962;2023-03-15T10:32:30;100181.63;;;21.55;31.22
45813;BME280;31519;45.408;10.962;2023-03-15T10:35:01;100173.66;;;20.79;30.56
45813;BME280;31519;45.408;10.962;2023-03-15T10:37:29;100176.34;;;20.76;30.82
45813;BME280;31519;45.408;10.962;2023-03-15T10:39:57;100179.25;;;19.91;32.92
45813;BME280;31519;45.408;10.962;2023-03-15T10:42:27;100183.56;;;19.56;32.91
45813;BME280;31519;45.408;10.962;2023-03-15T10:44:55;100176.50;;;19.44;34.64
45813;BME280;31519;45.408;10.962;2023-03-15T10:47:24;100186.25;;;18.89;30.36
45813;BME280;31519;45.408;10.962;2023-03-15T10:49:56;100184.50;;;19.03;32.44
45813;BME280;31519;45.408;10.962;2023-03-15T10:52:34;100194.53;;;18.47;36.50
45813;BME280;31519;45.408;10.962;2023-03-15T10:55:05;100193.56;;;18.88;34.89
45813;BME280;31519;45.408;10.962;2023-03-15T10:57:37;100202.84;;;18.61;35.91
45813;BME280;31519;45.408;10.962;2023-03-15T11:00:24;100201.03;;;19.32;35.23
45813;BME280;31519;45.408;10.962;2023-03-15T11:05:42;100219.41;;;20.37;32.81
45813;BME280;31519;45.408;10.962;2023-03-15T11:08:21;100220.66;;;20.54;31.41
45813;BME280;31519;45.408;10.962;2023-03-15T11:10:58;100223.72;;;20.49;33.36
45813;BME280;31519;45.408;10.962;2023-03-15T11:13:28;100235.91;;;20.76;35.06
45813;BME280;31519;45.408;10.962;2023-03-15T11:18:43;100275.13;;;21.10;37.66
45813;BME280;31519;45.408;10.962;2023-03-15T11:21:13;100268.22;;;20.51;41.05
45813;BME280;31519;45.408;10.962;2023-03-15T11:23:42;100276.72;;;19.39;43.38
45813;BME280;31519;45.408;10.962;2023-03-15T11:26:17;100291.19;;;17.77;46.79
45813;BME280;31519;45.408;10.962;2023-03-15T11:28:59;100306.81;;;16.78;50.18
45813;BME280;31519;45.408;10.962;2023-03-15T11:31:28;100303.81;;;17.92;48.08
45813;BME280;31519;45.408;10.962;2023-03-15T11:34:11;100309.56;;;18.36;45.17
45813;BME280;31519;45.408;10.962;2023-03-15T11:36:42;100326.16;;;18.38;44.17
45813;BME280;31519;45.408;10.962;2023-03-15T11:39:12;100329.03;;;17.45;44.78
45813;BME280;31519;45.408;10.962;2023-03-15T11:41:45;100310.25;;;15.73;49.36
45813;BME280;31519;45.408;10.962;2023-03-15T11:44:26;100302.91;;;16.45;48.80
45813;BME280;31519;45.408;10.962;2023-03-15T11:47:39;100299.50;;;16.32;49.86
45813;BME280;31519;45.408;10.962;2023-03-15T11:49:49;100308.78;;;16.19;49.79
45813;BME280;31519;45.408;10.962;2023-03-15T11:52:17;100324.03;;;17.09;48.99
45813;BME280;31519;45.408;10.962;2023-03-15T11:54:46;100315.47;;;17.42;47.02
45813;BME280;31519;45.408;10.962;2023-03-15T12:02:54;100317.25;;;17.53;47.46
45813;BME280;31519;45.408;10.962;2023-03-15T12:08:22;100317.81;;;17.24;47.50
45813;BME280;31519;45.408;10.962;2023-03-15T12:10:51;100316.50;;;16.83;48.96
45813;BME280;31519;45.408;10.962;2023-03-15T12:13:23;100308.06;;;17.00;49.45
45813;BME280;31519;45.408;10.962;2023-03-15T12:15:52;100319.06;;;16.60;50.63
45813;BME280;31519;45.408;10.962;2023-03-15T12:18:20;100306.53;;;16.05;51.53
45813;BME280;31519;45.408;10.962;2023-03-15T12:20:50;100316.38;;;15.85;52.25
45813;BME280;31519;45.408;10.962;2023-03-15T12:23:30;100306.38;;;16.29;51.44
45813;BME280;31519;45.408;10.962;2023-03-15T12:28:38;100297.44;;;16.57;51.05
45813;BME280;31519;45.408;10.962;2023-03-15T12:31:09;100304.28;;;16.23;50.65
45813;BME280;31519;45.408;10.962;2023-03-15T12:33:44;100322.88;;;16.75;50.36
45813;BME280;31519;45.408;10.962;2023-03-15T12:36:33;100319.63;;;16.22;49.73
45813;BME280;31519;45.408;10.962;2023-03-15T12:39:19;100306.00;;;16.94;48.96
45813;BME280;31519;45.408;10.962;2023-03-15T12:41:48;100304.50;;;16.61;50.93
45813;BME280;31519;45.408;10.962;2023-03-15T12:47:03;100311.34;;;17.28;49.04
45813;BME280;31519;45.408;10.962;2023-03-15T12:49:36;100298.53;;;16.87;51.11
45813;BME280;31519;45.408;10.962;2023-03-15T12:57:10;100289.91;;;18.84;46.62
45813;BME280;31519;45.408;10.962;2023-03-15T12:59:48;100286.31;;;18.05;48.95
45813;BME280;31519;45.408;10.962;2023-03-15T13:04:45;100284.94;;;18.14;47.81
45813;BME280;31519;45.408;10.962;2023-03-15T13:07:19;100276.59;;;18.98;46.41
45813;BME280;31519;45.408;10.962;2023-03-15T13:10:05;100289.13;;;17.89;48.35
45813;BME280;31519;45.408;10.962;2023-03-15T13:15:27;100282.25;;;18.60;47.10
45813;BME280;31519;45.408;10.962;2023-03-15T13:18:03;100277.91;;;19.71;45.11
45813;BME280;31519;45.408;10.962;2023-03-15T13:20:36;100290.44;;;19.90;43.51
45813;BME280;31519;45.408;10.962;2023-03-15T13:23:12;100291.09;;;18.15;46.63
45813;BME280;31519;45.408;10.962;2023-03-15T13:25:46;100278.75;;;18.59;46.36
45813;BME280;31519;45.408;10.962;2023-03-15T13:28:26;100280.69;;;18.59;46.54
45813;BME280;31519;45.408;10.962;2023-03-15T13:30:55;100286.41;;;19.10;44.76
45813;BME280;31519;45.408;10.962;2023-03-15T13:33:26;100273.13;;;19.28;44.71
45813;BME280;31519;45.408;10.962;2023-03-15T13:40:51;100272.09;;;19.06;44.45
45813;BME280;31519;45.408;10.962;2023-03-15T13:43:23;100293.69;;;18.53;45.51
45813;BME280;31519;45.408;10.962;2023-03-15T13:45:50;100285.88;;;18.71;45.29
45813;BME280;31519;45.408;10.962;2023-03-15T13:48:18;100282.56;;;18.55;44.67
45813;BME280;31519;45.408;10.962;2023-03-15T13:50:49;100283.94;;;18.98;43.53
45813;BME280;31519;45.408;10.962;2023-03-15T13:53:23;100282.41;;;19.57;42.69
45813;BME280;31519;45.408;10.962;2023-03-15T13:56:13;100285.69;;;18.83;42.47
45813;BME280;31519;45.408;10.962;2023-03-15T13:58:42;100282.50;;;20.08;41.36
45813;BME280;31519;45.408;10.962;2023-03-15T14:01:10;100292.69;;;18.42;42.45
45813;BME280;31519;45.408;10.962;2023-03-15T14:03:40;100283.41;;;18.89;38.32
45813;BME280;31519;45.408;10.962;2023-03-15T14:06:12;100271.78;;;19.74;39.04
45813;BME280;31519;45.408;10.962;2023-03-15T14:08:48;100276.69;;;19.65;38.04
45813;BME280;31519;45.408;10.962;2023-03-15T14:13:52;100282.13;;;19.69;37.70
45813;BME280;31519;45.408;10.962;2023-03-15T14:16:33;100287.03;;;19.97;37.97